Time;durP1;ratioP1;P1;durP2;ratioP2;P2;SDS_P1;SDS_P2;PMS_P1;PMS_P2;Temp;Humidity;BMP_temperature;BMP_pressure;BME280_temperature;BME280_humidity;BME280_pressure;Samples;Min_cycle;Max_cycle;Signal;HPM_P1;HPM_P2
2022/01/01 00:02:25;;;;;;;8.90;8.60;;;11.30;99.90;;;;;;5083558;28;20296;-81
2022/01/01 00:04:53;;;;;;;8.80;8.60;;;11.30;99.90;;;;;;5084832;28;20222;-80
2022/01/01 00:07:22;;;;;;;9.03;8.73;;;11.30;99.90;;;;;;5085572;28;20230;-81
2022/01/01 00:09:59;;;;;;;9.20;8.90;;;11.30;99.90;;;;;;5082858;28;20273;-81
2022/01/01 00:12:31;;;;;;;9.00;8.70;;;11.30;99.90;;;;;;5081548;28;20217;-81
2022/01/01 00:14:59;;;;;;;9.10;8.80;;;11.30;99.90;;;;;;5080527;28;20245;-81
2022/01/01 00:17:27;;;;;;;8.90;8.60;;;11.30;99.90;;;;;;5080777;28;20238;-80
2022/01/01 00:19:54;;;;;;;9.20;8.90;;;11.30;99.90;;;;;;5104707;22;20303;-79
2022/01/01 00:22:23;;;;;;;9.10;8.80;;;11.30;99.90;;;;;;5119679;28;20278;-80
2022/01/01 00:24:51;;;;;;;9.03;8.73;;;11.30;99.90;;;;;;5119651;28;20268;-79
2022/01/01 00:27:19;;;;;;;9.20;8.90;;;11.40;99.90;;;;;;5120843;28;20225;-78
2022/01/01 00:29:46;;;;;;;8.90;8.60;;;11.40;99.90;;;;;;5119667;28;20255;-78
2022/01/01 00:32:14;;;;;;;9.07;8.77;;;11.40;99.90;;;;;;5119153;28;20272;-78
2022/01/01 00:34:41;;;;;;;9.37;9.07;;;11.30;99.90;;;;;;5119115;28;20268;-77
2022/01/01 00:37:09;;;;;;;8.70;8.50;;;11.40;99.90;;;;;;5121560;28;20259;-78
2022/01/01 00:39:40;;;;;;;9.10;8.80;;;11.40;99.90;;;;;;5122968;28;20229;-78
2022/01/01 00:42:08;;;;;;;8.77;8.53;;;11.40;99.90;;;;;;5126367;28;20290;-78
2022/01/01 00:44:36;;;;;;;8.70;8.50;;;11.40;99.90;;;;;;5124994;28;20282;-78
2022/01/01 00:47:06;;;;;;;9.03;8.73;;;11.40;99.90;;;;;;5126250;28;20246;-78
2022/01/01 00:49:35;;;;;;;9.00;8.70;;;11.30;99.90;;;;;;5124309;28;20232;-78
2022/01/01 00:52:05;;;;;;;9.10;8.80;;;11.30;99.90;;;;;;5125375;28;20228;-78
2022/01/01 00:54:34;;;;;;;9.00;8.70;;;11.30;99.90;;;;;;5125179;27;20217;-80
2022/01/01 00:57:04;;;;;;;9.10;8.80;;;11.30;99.90;;;;;;5127872;28;20263;-79
2022/01/01 00:59:33;;;;;;;8.90;8.60;;;11.30;99.90;;;;;;5127202;28;20272;-79
2022/01/01 01:02:02;;;;;;;9.20;8.90;;;11.30;99.90;;;;;;5127725;28;20283;-79
2022/01/01 01:04:32;;;;;;;9.00;8.70;;;11.30;99.90;;;;;;5127330;28;20216;-79
2022/01/01 01:07:03;;;;;;;8.80;8.60;;;11.30;99.90;;;;;;5123191;28;20278;-79
2022/01/01 01:09:31;;;;;;;8.97;8.67;;;11.30;99.90;;;;;;5125125;28;20232;-78
2022/01/01 01:12:00;;;;;;;9.30;9.00;;;11.30;99.90;;;;;;5124200;28;20262;-77
2022/01/01 01:14:40;;;;;;;9.30;9.00;;;11.30;99.90;;;;;;5121750;28;20228;-77
2022/01/01 01:17:08;;;;;;;9.00;8.70;;;11.30;99.90;;;;;;5115039;28;20225;-78
2022/01/01 01:19:37;;;;;;;9.00;8.70;;;11.30;99.90;;;;;;5117445;28;20323;-78
2022/01/01 01:22:07;;;;;;;9.00;8.70;;;11.30;99.90;;;;;;5117398;28;20236;-78
2022/01/01 01:24:39;;;;;;;8.90;8.60;;;11.30;99.90;;;;;;5118299;28;20217;-78
2022/01/01 01:27:09;;;;;;;9.03;8.73;;;11.30;99.90;;;;;;5111931;28;20229;-78
2022/01/01 01:29:43;;;;;;;8.90;8.60;;;11.30;99.90;;;;;;5097814;28;20225;-78
2022/01/01 01:32:15;;;;;;;8.80;8.60;;;11.20;99.90;;;;;;5098272;28;20241;-78
2022/01/01 01:34:43;;;;;;;9.00;8.70;;;11.30;99.90;;;;;;5106020;28;20221;-77
2022/01/01 01:37:16;;;;;;;9.17;8.87;;;11.30;99.90;;;;;;5112540;28;20229;-78
2022/01/01 01:39:44;;;;;;;9.30;9.00;;;11.30;99.90;;;;;;5110364;28;20233;-78
2022/01/01 01:42:14;;;;;;;9.10;8.80;;;11.20;99.90;;;;;;5118498;28;20240;-78
2022/01/01 01:44:48;;;;;;;9.13;8.83;;;11.20;99.90;;;;;;5118129;28;20282;-78
2022/01/01 01:47:17;;;;;;;9.23;8.93;;;11.20;99.90;;;;;;5118829;28;20233;-78
2022/01/01 01:49:54;;;;;;;9.00;8.70;;;11.30;99.90;;;;;;5118925;28;20231;-78
2022/01/01 01:52:22;;;;;;;9.20;8.90;;;11.30;99.90;;;;;;5119571;28;20327;-78
2022/01/01 01:54:50;;;;;;;9.20;8.90;;;11.30;99.90;;;;;;5112629;28;20282;-77
2022/01/01 01:57:20;;;;;;;9.27;8.97;;;11.20;99.90;;;;;;5118798;28;20233;-78
2022/01/01 01:59:57;;;;;;;9.20;8.90;;;11.20;99.90;;;;;;5114978;28;20233;-78
2022/01/01 02:02:26;;;;;;;9.43;9.13;;;11.20;99.90;;;;;;5098330;28;20225;-78
2022/01/01 02:04:56;;;;;;;9.20;8.90;;;11.30;99.90;;;;;;5110553;28;20252;-78
2022/01/01 02:07:25;;;;;;;9.10;8.80;;;11.20;99.90;;;;;;5101181;28;20257;-78
2022/01/01 02:09:53;;;;;;;9.10;8.80;;;11.20;99.90;;;;;;5101695;28;20286;-78
2022/01/01 02:12:25;;;;;;;9.40;9.10;;;11.20;99.90;;;;;;5101279;28;20382;-79
2022/01/01 02:15:11;;;;;;;9.40;9.10;;;11.20;99.90;;;;;;5101407;28;20229;-78
2022/01/01 02:17:40;;;;;;;9.30;9.00;;;11.20;99.90;;;;;;5111940;28;20225;-78
2022/01/01 02:20:21;;;;;;;9.17;8.87;;;11.20;99.90;;;;;;5114728;28;20237;-79
2022/01/01 02:22:51;;;;;;;9.10;8.80;;;11.20;99.90;;;;;;5101039;28;20244;-78
2022/01/01 02:25:20;;;;;;;9.00;8.70;;;11.20;99.90;;;;;;5101299;28;20228;-78
2022/01/01 02:27:48;;;;;;;9.10;8.80;;;11.20;99.90;;;;;;5101597;28;20229;-77
2022/01/01 02:30:17;;;;;;;9.23;8.93;;;11.20;99.90;;;;;;5101609;28;20233;-78
2022/01/01 02:32:45;;;;;;;9.20;8.90;;;11.10;99.90;;;;;;5101997;28;20233;-78
2022/01/01 02:35:24;;;;;;;9.10;8.80;;;11.10;99.90;;;;;;5102008;28;20232;-78
2022/01/01 02:37:53;;;;;;;9.10;8.80;;;11.10;99.90;;;;;;5103659;28;20263;-78
2022/01/01 02:40:23;;;;;;;9.10;8.80;;;11.10;99.90;;;;;;5103018;28;20233;-78
2022/01/01 02:42:54;;;;;;;9.10;8.80;;;11.10;99.90;;;;;;5103466;28;20232;-78
2022/01/01 02:45:22;;;;;;;9.40;9.10;;;11.00;99.90;;;;;;5102577;28;20233;-78
2022/01/01 02:47:51;;;;;;;9.00;8.70;;;11.10;99.90;;;;;;5108698;28;20233;-78
2022/01/01 02:50:23;;;;;;;9.27;8.97;;;11.00;99.90;;;;;;5106336;28;20264;-78
2022/01/01 02:52:52;;;;;;;9.10;8.80;;;11.10;99.90;;;;;;5101512;28;20229;-78
2022/01/01 02:55:20;;;;;;;9.27;8.97;;;11.10;99.90;;;;;;5102174;28;20221;-78
2022/01/01 02:57:49;;;;;;;9.00;8.70;;;11.00;99.90;;;;;;5102007;28;20256;-78
2022/01/01 03:00:18;;;;;;;9.20;8.90;;;11.10;99.90;;;;;;5101714;28;20268;-78
2022/01/01 03:02:48;;;;;;;9.27;8.97;;;11.00;99.90;;;;;;5101292;28;20280;-78
2022/01/01 03:05:17;;;;;;;9.37;9.07;;;11.10;99.90;;;;;;5101787;28;20220;-78
2022/01/01 03:07:57;;;;;;;9.23;8.93;;;11.10;99.90;;;;;;5102052;28;20233;-78
2022/01/01 03:10:25;;;;;;;9.50;9.20;;;11.00;99.90;;;;;;5101705;28;20286;-78
2022/01/01 03:12:55;;;;;;;9.33;9.03;;;11.00;99.90;;;;;;5101183;28;20244;-78
2022/01/01 03:15:24;;;;;;;9.33;9.03;;;11.00;99.90;;;;;;5101688;28;20255;-78
2022/01/01 03:17:55;;;;;;;9.50;9.20;;;11.00;99.90;;;;;;5100154;28;20256;-78
2022/01/01 03:20:23;;;;;;;9.30;9.00;;;11.00;99.90;;;;;;5101588;28;20260;-78
2022/01/01 03:23:12;;;;;;;9.27;8.97;;;11.00;99.90;;;;;;5101095;28;20236;-78
2022/01/01 03:25:41;;;;;;;9.17;8.87;;;11.00;99.90;;;;;;5100646;28;20236;-78
2022/01/01 03:28:11;;;;;;;9.40;9.10;;;11.00;99.90;;;;;;5105634;28;20236;-77
2022/01/01 03:30:40;;;;;;;9.10;8.80;;;11.00;99.90;;;;;;5105336;28;20307;-78
2022/01/01 03:33:10;;;;;;;9.33;9.03;;;11.00;99.90;;;;;;5101904;28;20322;-80
2022/01/01 03:35:39;;;;;;;9.40;9.10;;;11.00;99.90;;;;;;5103010;28;20291;-78
2022/01/01 03:38:11;;;;;;;9.40;9.10;;;11.00;99.90;;;;;;5102814;28;20308;-78
2022/01/01 03:40:39;;;;;;;9.20;8.90;;;11.00;99.90;;;;;;5102260;28;20264;-78
2022/01/01 03:43:08;;;;;;;9.30;9.00;;;11.00;99.90;;;;;;5101861;28;20295;-78
2022/01/01 03:45:37;;;;;;;9.10;8.80;;;11.00;99.90;;;;;;5103042;28;20226;-78
2022/01/01 03:48:07;;;;;;;9.20;8.90;;;11.00;99.90;;;;;;5102467;28;20786;-78
2022/01/01 03:50:36;;;;;;;9.03;8.73;;;10.90;99.90;;;;;;5102655;28;20239;-78
2022/01/01 03:53:06;;;;;;;9.30;9.00;;;11.00;99.90;;;;;;5102618;28;20229;-79
2022/01/01 03:55:37;;;;;;;9.53;9.23;;;10.90;99.90;;;;;;5102324;28;20233;-79
2022/01/01 03:58:05;;;;;;;9.27;8.97;;;10.90;99.90;;;;;;5102169;28;20239;-78
2022/01/01 04:00:34;;;;;;;9.27;8.97;;;10.90;99.90;;;;;;5101726;28;20238;-78
2022/01/01 04:03:13;;;;;;;9.30;9.00;;;10.90;99.90;;;;;;5101935;28;20264;-78
2022/01/01 04:05:42;;;;;;;9.23;8.93;;;10.90;99.90;;;;;;5101959;28;20248;-78
2022/01/01 04:08:11;;;;;;;9.13;8.83;;;10.90;99.90;;;;;;5105046;28;20229;-78
2022/01/01 04:10:43;;;;;;;9.20;8.90;;;10.80;99.90;;;;;;5106672;28;20233;-78
2022/01/01 04:13:12;;;;;;;9.30;9.00;;;10.80;99.90;;;;;;5105173;28;20230;-78
2022/01/01 04:15:42;;;;;;;9.40;9.10;;;10.80;99.90;;;;;;5106249;28;20287;-78
2022/01/01 04:18:14;;;;;;;9.20;8.90;;;10.80;99.90;;;;;;5104476;28;20226;-78
2022/01/01 04:20:47;;;;;;;9.20;8.90;;;10.70;99.90;;;;;;5099859;28;20233;-78
2022/01/01 04:23:16;;;;;;;9.47;9.17;;;10.70;99.90;;;;;;5099902;28;20234;-78
2022/01/01 04:25:48;;;;;;;9.20;8.90;;;10.70;99.90;;;;;;5099835;28;20225;-78
2022/01/01 04:28:16;;;;;;;9.20;8.90;;;10.70;99.90;;;;;;5100173;28;20234;-78
2022/01/01 04:30:45;;;;;;;9.37;9.07;;;10.70;99.90;;;;;;5100171;28;20247;-78
2022/01/01 04:33:14;;;;;;;9.50;9.20;;;10.60;99.90;;;;;;5098978;28;20245;-77
2022/01/01 04:35:44;;;;;;;9.20;8.90;;;10.60;99.90;;;;;;5100091;28;20229;-78
2022/01/01 04:38:28;;;;;;;9.17;8.87;;;10.60;99.90;;;;;;5100174;28;20256;-77
2022/01/01 04:41:02;;;;;;;9.30;9.00;;;10.60;99.90;;;;;;5099240;28;20242;-78
2022/01/01 04:43:30;;;;;;;9.20;8.90;;;10.60;99.90;;;;;;5099357;28;20251;-78
2022/01/01 04:45:58;;;;;;;9.40;9.10;;;10.50;99.90;;;;;;5101604;28;20217;-78
2022/01/01 04:48:28;;;;;;;9.20;8.90;;;10.50;99.90;;;;;;5101069;28;20233;-78
2022/01/01 04:50:57;;;;;;;9.27;8.97;;;10.50;99.90;;;;;;5100359;28;20237;-78
2022/01/01 04:53:26;;;;;;;9.47;9.17;;;10.50;99.90;;;;;;5106636;28;20234;-78
2022/01/01 04:55:56;;;;;;;9.17;8.87;;;10.50;99.90;;;;;;5103955;28;20220;-78
2022/01/01 04:58:29;;;;;;;9.40;9.10;;;10.50;99.90;;;;;;5103565;28;20279;-78
2022/01/01 05:00:56;;;;;;;9.53;9.23;;;10.50;99.90;;;;;;5101074;28;20237;-78
2022/01/01 05:03:24;;;;;;;9.40;9.10;;;10.50;99.90;;;;;;5099898;28;21079;-77
2022/01/01 05:05:54;;;;;;;9.20;8.90;;;10.50;99.90;;;;;;5100072;28;20778;-78
2022/01/01 05:08:23;;;;;;;9.30;9.00;;;10.50;99.90;;;;;;5099783;28;20229;-78
2022/01/01 05:10:54;;;;;;;9.30;9.00;;;10.50;99.90;;;;;;5099573;28;20237;-78
2022/01/01 05:13:24;;;;;;;9.30;9.00;;;10.50;99.90;;;;;;5098880;28;20303;-78
2022/01/01 05:15:54;;;;;;;9.40;9.10;;;10.50;99.90;;;;;;5099162;28;20229;-78
2022/01/01 05:18:22;;;;;;;9.50;9.20;;;10.50;99.90;;;;;;5100184;28;20235;-78
2022/01/01 05:20:50;;;;;;;9.33;9.03;;;10.40;99.90;;;;;;5099385;28;20284;-78
2022/01/01 05:23:20;;;;;;;9.33;9.03;;;10.40;99.90;;;;;;5099784;28;20229;-78
2022/01/01 05:25:50;;;;;;;9.33;9.03;;;10.50;99.90;;;;;;5099459;28;20225;-78
2022/01/01 05:28:22;;;;;;;9.23;8.93;;;10.50;99.90;;;;;;5099393;28;20372;-78
2022/01/01 05:30:53;;;;;;;9.20;8.90;;;10.50;99.90;;;;;;5099144;28;20283;-78
2022/01/01 05:33:21;;;;;;;9.20;8.90;;;10.50;99.90;;;;;;5099209;28;20241;-78
2022/01/01 05:35:50;;;;;;;9.40;9.10;;;10.50;99.90;;;;;;5099571;28;20257;-78
2022/01/01 05:38:18;;;;;;;9.30;9.00;;;10.50;99.90;;;;;;5099572;28;20225;-78
2022/01/01 05:40:48;;;;;;;9.13;8.83;;;10.50;99.90;;;;;;5098557;28;20237;-78
2022/01/01 05:43:18;;;;;;;9.43;9.13;;;10.50;99.90;;;;;;5099533;28;20239;-78
2022/01/01 05:45:48;;;;;;;9.30;9.00;;;10.50;99.90;;;;;;5099765;28;20228;-77
2022/01/01 05:48:19;;;;;;;9.40;9.10;;;10.50;99.90;;;;;;5099708;28;20226;-79
2022/01/01 05:50:46;;;;;;;9.20;8.90;;;10.50;99.90;;;;;;5098491;28;20240;-78
2022/01/01 05:53:16;;;;;;;9.37;9.07;;;10.50;99.90;;;;;;5100820;28;20271;-78
2022/01/01 05:55:45;;;;;;;9.07;8.77;;;10.50;99.90;;;;;;5103462;28;20237;-78
2022/01/01 05:58:15;;;;;;;9.50;9.20;;;10.50;99.90;;;;;;5101800;28;20229;-80
2022/01/01 06:00:43;;;;;;;9.40;9.10;;;10.50;99.90;;;;;;5100740;28;20237;-79
2022/01/01 06:03:13;;;;;;;8.97;8.67;;;10.60;99.90;;;;;;5100604;28;20221;-79
2022/01/01 06:08:28;;;;;;;9.07;8.77;;;10.60;99.90;;;;;;5099612;28;20230;-79
2022/01/01 06:11:01;;;;;;;9.30;9.00;;;10.60;99.90;;;;;;5099745;28;20229;-78
2022/01/01 06:13:29;;;;;;;9.20;8.90;;;10.60;99.90;;;;;;5099282;28;20252;-79
2022/01/01 06:15:58;;;;;;;9.30;9.00;;;10.50;99.90;;;;;;5099875;28;20228;-79
2022/01/01 06:18:27;;;;;;;9.10;8.80;;;10.50;99.90;;;;;;5098997;28;20230;-79
2022/01/01 06:21:05;;;;;;;9.20;8.90;;;10.50;99.90;;;;;;5098686;28;20303;-79
2022/01/01 06:23:36;;;;;;;9.03;8.73;;;10.50;99.90;;;;;;5152754;22;20265;-82
2022/01/01 06:26:04;;;;;;;9.13;8.83;;;10.40;99.90;;;;;;5140594;27;20220;-81
2022/01/01 06:28:32;;;;;;;9.10;8.80;;;10.40;99.90;;;;;;5156940;27;20262;-81
2022/01/01 06:31:00;;;;;;;9.10;8.80;;;10.40;99.90;;;;;;5147038;27;20233;-82
2022/01/01 06:33:28;;;;;;;9.23;8.93;;;10.30;99.90;;;;;;5128174;27;20294;-83
2022/01/01 06:35:57;;;;;;;9.10;8.80;;;10.40;99.90;;;;;;5122922;28;20247;-82
2022/01/01 06:38:25;;;;;;;9.10;8.80;;;10.40;99.90;;;;;;5119692;28;20313;-83
2022/01/01 06:40:53;;;;;;;9.07;8.77;;;10.30;99.90;;;;;;5108970;28;20237;-82
2022/01/01 06:43:23;;;;;;;9.20;8.90;;;10.30;99.90;;;;;;5099867;28;20237;-83
2022/01/01 06:45:51;;;;;;;9.30;9.00;;;10.30;99.90;;;;;;5100177;28;20214;-82
2022/01/01 06:48:19;;;;;;;9.30;9.00;;;10.30;99.90;;;;;;5100133;28;20290;-82
2022/01/01 06:50:46;;;;;;;9.10;8.80;;;10.20;99.90;;;;;;5100525;28;20233;-82
2022/01/01 06:53:16;;;;;;;9.00;8.70;;;10.30;99.90;;;;;;5102579;28;20234;-83
2022/01/01 06:55:43;;;;;;;9.10;8.80;;;10.30;99.90;;;;;;5109254;28;20210;-81
2022/01/01 06:58:11;;;;;;;9.00;8.70;;;10.30;99.90;;;;;;5108988;28;20237;-83
2022/01/01 07:00:39;;;;;;;9.30;9.00;;;10.30;99.90;;;;;;5116668;28;20233;-83
2022/01/01 07:03:07;;;;;;;9.10;8.80;;;10.30;99.90;;;;;;5122221;27;20225;-82
2022/01/01 07:05:35;;;;;;;9.17;8.87;;;10.30;99.90;;;;;;5123038;28;20228;-82
2022/01/01 07:08:03;;;;;;;9.07;8.77;;;10.30;99.90;;;;;;5125044;28;20233;-83
2022/01/01 07:10:33;;;;;;;9.33;9.03;;;10.40;99.90;;;;;;5125083;28;20225;-82
2022/01/01 07:13:01;;;;;;;9.03;8.73;;;10.40;99.90;;;;;;5125413;27;20241;-82
2022/01/01 07:15:29;;;;;;;9.30;9.00;;;10.30;99.90;;;;;;5125455;28;20220;-82
2022/01/01 07:17:56;;;;;;;9.40;9.10;;;10.30;99.90;;;;;;5125203;28;20228;-82
2022/01/01 07:20:24;;;;;;;9.23;8.93;;;10.30;99.90;;;;;;5124523;28;20684;-83
2022/01/01 07:22:52;;;;;;;9.07;8.77;;;10.30;99.90;;;;;;5123602;27;20999;-82
2022/01/01 07:25:20;;;;;;;9.10;8.80;;;10.40;99.90;;;;;;5124173;28;20225;-81
2022/01/01 07:27:49;;;;;;;9.23;8.93;;;10.40;99.90;;;;;;5124694;28;20233;-81
2022/01/01 07:30:17;;;;;;;9.10;8.80;;;10.40;99.90;;;;;;5123722;28;20274;-82
2022/01/01 07:32:46;;;;;;;9.10;8.80;;;10.30;99.90;;;;;;5123726;27;20224;-82
2022/01/01 07:35:16;;;;;;;9.20;8.90;;;10.40;99.90;;;;;;5124130;28;20318;-82
2022/01/01 07:37:44;;;;;;;9.13;8.83;;;10.40;99.90;;;;;;5124132;28;20220;-81
2022/01/01 07:40:16;;;;;;;9.07;8.77;;;10.40;99.90;;;;;;5129959;28;20254;-82
2022/01/01 07:42:45;;;;;;;9.17;8.87;;;10.40;99.90;;;;;;5127611;28;20228;-81
2022/01/01 07:45:17;;;;;;;9.10;8.80;;;10.40;99.90;;;;;;5124775;28;20225;-81
2022/01/01 07:47:45;;;;;;;9.10;8.80;;;10.50;99.90;;;;;;5124260;28;20232;-82
2022/01/01 07:50:12;;;;;;;8.90;8.60;;;10.50;99.90;;;;;;5123615;28;20257;-82
2022/01/01 07:52:42;;;;;;;9.10;8.80;;;10.50;99.90;;;;;;5103492;28;20225;-81
2022/01/01 07:55:10;;;;;;;9.13;8.83;;;10.50;99.90;;;;;;5108303;28;20282;-79
2022/01/01 07:57:38;;;;;;;9.07;8.77;;;10.50;99.90;;;;;;5104500;28;20225;-81
2022/01/01 08:00:08;;;;;;;9.10;8.80;;;10.50;99.90;;;;;;5101587;28;20255;-82
2022/01/01 08:02:42;;;;;;;9.20;8.90;;;10.50;99.90;;;;;;5101469;28;20242;-82
2022/01/01 08:05:17;;;;;;;8.90;8.60;;;10.60;99.90;;;;;;5099970;28;20239;-81
2022/01/01 08:07:46;;;;;;;9.03;8.73;;;10.50;99.90;;;;;;5102139;28;20225;-81
2022/01/01 08:10:14;;;;;;;8.97;8.67;;;10.50;99.90;;;;;;5103108;28;20276;-81
2022/01/01 08:12:43;;;;;;;9.17;8.87;;;10.50;99.90;;;;;;5102670;28;20237;-81
2022/01/01 08:15:11;;;;;;;9.20;8.90;;;10.50;99.90;;;;;;5102952;28;20218;-81
2022/01/01 08:17:40;;;;;;;8.90;8.60;;;10.50;99.90;;;;;;5102992;28;20236;-80
2022/01/01 08:20:09;;;;;;;8.87;8.63;;;10.50;99.90;;;;;;5102482;28;20229;-81
2022/01/01 08:22:37;;;;;;;8.83;8.63;;;10.50;99.90;;;;;;5102340;28;20240;-82
2022/01/01 08:25:05;;;;;;;9.07;8.77;;;10.50;99.90;;;;;;5103873;28;20225;-81
2022/01/01 08:27:33;;;;;;;9.00;8.70;;;10.50;99.90;;;;;;5102725;28;20229;-81
2022/01/01 08:30:00;;;;;;;8.90;8.60;;;10.50;99.90;;;;;;5101631;28;20260;-81
2022/01/01 08:32:28;;;;;;;9.10;8.80;;;10.50;99.90;;;;;;5101333;28;20237;-81
2022/01/01 08:34:57;;;;;;;9.20;8.90;;;10.60;99.90;;;;;;5101704;28;20233;-82
2022/01/01 08:37:25;;;;;;;9.00;8.70;;;10.60;99.90;;;;;;5100714;28;20271;-82
2022/01/01 08:39:52;;;;;;;8.93;8.63;;;10.60;99.90;;;;;;5101596;28;20234;-82
2022/01/01 08:42:20;;;;;;;8.83;8.57;;;10.70;99.90;;;;;;5101314;28;20226;-82
2022/01/01 08:44:49;;;;;;;9.17;8.87;;;10.70;99.90;;;;;;5102045;28;20236;-81
2022/01/01 08:47:17;;;;;;;9.50;9.20;;;10.70;99.90;;;;;;5101481;28;20423;-81
2022/01/01 08:49:44;;;;;;;9.30;9.00;;;10.70;99.90;;;;;;5100991;28;20229;-81
2022/01/01 08:52:14;;;;;;;8.80;8.60;;;10.80;99.90;;;;;;5100693;28;20256;-81
2022/01/01 08:54:41;;;;;;;9.40;9.10;;;10.80;99.90;;;;;;5101531;28;20238;-81
2022/01/01 08:57:09;;;;;;;9.20;8.90;;;10.80;99.90;;;;;;5110836;28;20233;-81
2022/01/01 08:59:37;;;;;;;9.47;9.17;;;10.90;99.90;;;;;;5109623;28;20232;-81
2022/01/01 09:02:05;;;;;;;9.30;9.00;;;10.80;99.90;;;;;;5115494;28;20992;-81
2022/01/01 09:04:33;;;;;;;9.30;9.00;;;10.80;99.90;;;;;;5118847;28;20240;-81
2022/01/01 09:07:00;;;;;;;9.50;9.20;;;10.80;99.90;;;;;;5118496;28;20226;-80
2022/01/01 09:09:29;;;;;;;9.43;9.13;;;10.90;99.90;;;;;;5118087;28;20229;-81
2022/01/01 09:11:58;;;;;;;9.50;9.20;;;10.90;99.90;;;;;;5104548;28;20286;-80
2022/01/01 09:14:25;;;;;;;9.50;9.20;;;10.90;99.90;;;;;;5102718;28;20233;-81
2022/01/01 09:16:53;;;;;;;9.50;9.20;;;10.90;99.90;;;;;;5100780;28;20234;-81
2022/01/01 09:19:21;;;;;;;9.40;9.10;;;10.90;99.90;;;;;;5101561;28;20259;-81
2022/01/01 09:21:48;;;;;;;9.53;9.23;;;11.00;99.90;;;;;;5099869;28;20676;-81
2022/01/01 09:24:17;;;;;;;9.40;9.10;;;11.10;99.90;;;;;;5100526;28;20206;-81
2022/01/01 09:26:46;;;;;;;9.33;9.03;;;11.10;99.90;;;;;;5100541;28;20611;-81
2022/01/01 09:29:14;;;;;;;9.17;8.87;;;11.10;99.90;;;;;;5099640;28;20247;-80
2022/01/01 09:31:44;;;;;;;9.37;9.07;;;11.20;99.90;;;;;;5100546;28;20291;-80
2022/01/01 09:34:12;;;;;;;9.33;9.03;;;11.20;99.90;;;;;;5096406;28;20290;-80
2022/01/01 09:36:40;;;;;;;9.30;9.00;;;11.20;99.90;;;;;;5088203;28;20230;-81
2022/01/01 09:39:09;;;;;;;9.20;8.90;;;11.20;99.90;;;;;;5111262;28;20944;-81
2022/01/01 09:41:42;;;;;;;9.20;8.90;;;11.30;99.90;;;;;;5100600;28;20283;-81
2022/01/01 09:44:14;;;;;;;9.33;9.03;;;11.30;99.90;;;;;;5098890;28;20261;-79
2022/01/01 09:46:44;;;;;;;9.40;9.10;;;11.40;99.90;;;;;;5099031;28;20221;-80
2022/01/01 09:49:14;;;;;;;9.53;9.23;;;11.40;99.90;;;;;;5098788;28;20280;-81
2022/01/01 09:51:43;;;;;;;9.30;9.00;;;11.40;99.90;;;;;;5100102;28;20287;-81
2022/01/01 09:54:11;;;;;;;9.60;9.30;;;11.40;99.90;;;;;;5104498;28;20222;-77
2022/01/01 09:56:38;;;;;;;9.50;9.20;;;11.40;99.90;;;;;;5101180;28;20225;-81
2022/01/01 09:59:06;;;;;;;9.40;9.10;;;11.40;99.90;;;;;;5098873;28;20229;-81
2022/01/01 10:01:36;;;;;;;9.53;9.23;;;11.40;99.90;;;;;;5104797;28;20252;-81
2022/01/01 10:04:13;;;;;;;9.43;9.13;;;11.40;99.90;;;;;;5102157;28;20287;-81
2022/01/01 10:06:42;;;;;;;9.33;9.03;;;11.50;99.90;;;;;;5101727;28;20304;-81
2022/01/01 10:09:10;;;;;;;9.40;9.10;;;11.50;99.90;;;;;;5101897;28;20229;-81
2022/01/01 10:11:38;;;;;;;9.17;8.87;;;11.50;99.90;;;;;;5100684;28;20236;-80
2022/01/01 10:14:07;;;;;;;9.43;9.13;;;11.50;99.90;;;;;;5099755;28;20233;-80
2022/01/01 10:16:41;;;;;;;9.40;9.10;;;11.50;99.90;;;;;;5099571;28;20229;-81
2022/01/01 10:19:09;;;;;;;9.50;9.20;;;11.50;99.90;;;;;;5102204;28;20229;-80
2022/01/01 10:21:41;;;;;;;9.40;9.10;;;11.50;99.90;;;;;;5111099;28;20283;-80
2022/01/01 10:24:14;;;;;;;9.57;9.27;;;11.50;99.90;;;;;;5112284;28;20263;-80
2022/01/01 10:29:30;;;;;;;9.80;9.50;;;11.60;99.90;;;;;;5117721;28;20210;-80
2022/01/01 10:32:02;;;;;;;9.27;8.97;;;11.60;99.90;;;;;;5114322;28;20222;-81
2022/01/01 10:34:32;;;;;;;9.40;9.10;;;11.60;99.90;;;;;;5106232;28;20221;-81
2022/01/01 10:37:01;;;;;;;9.50;9.20;;;11.60;99.90;;;;;;5105947;28;20339;-80
2022/01/01 10:39:29;;;;;;;9.63;9.33;;;11.60;99.90;;;;;;5105067;28;20233;-80
2022/01/01 10:41:59;;;;;;;9.60;9.30;;;11.60;99.90;;;;;;5103365;28;20229;-80
2022/01/01 10:44:31;;;;;;;9.67;9.37;;;11.70;99.90;;;;;;5103961;28;20712;-81
2022/01/01 10:47:00;;;;;;;9.47;9.17;;;11.70;99.90;;;;;;5104755;28;20260;-80
2022/01/01 10:49:49;;;;;;;9.60;9.30;;;11.70;99.90;;;;;;5105050;28;20225;-82
2022/01/01 10:52:21;;;;;;;9.47;9.17;;;11.70;99.90;;;;;;5103274;28;20269;-81
2022/01/01 10:54:57;;;;;;;9.27;8.97;;;11.70;99.90;;;;;;5106388;28;20279;-82
2022/01/01 10:57:33;;;;;;;8.97;8.67;;;11.70;99.90;;;;;;5108097;28;20229;-81
2022/01/01 11:00:15;;;;;;;9.00;8.70;;;11.70;99.90;;;;;;5104906;28;20221;-81
2022/01/01 11:02:48;;;;;;;9.30;9.00;;;11.80;99.90;;;;;;5104876;28;20240;-81
2022/01/01 11:05:17;;;;;;;9.30;9.00;;;11.80;99.90;;;;;;5103666;28;20230;-81
2022/01/01 11:07:53;;;;;;;9.03;8.73;;;11.90;99.90;;;;;;5106483;28;20229;-79
2022/01/01 11:10:23;;;;;;;9.20;8.90;;;11.90;99.90;;;;;;5107495;28;20209;-82
2022/01/01 11:12:52;;;;;;;9.20;8.90;;;11.90;99.90;;;;;;5106321;28;20291;-80
2022/01/01 11:15:21;;;;;;;9.10;8.80;;;12.00;99.90;;;;;;5104464;28;20259;-81
2022/01/01 11:17:50;;;;;;;8.63;8.43;;;12.00;99.90;;;;;;5102982;28;20264;-81
2022/01/01 11:20:20;;;;;;;9.17;8.87;;;12.00;99.90;;;;;;5103416;28;20260;-81
2022/01/01 11:22:49;;;;;;;8.97;8.70;;;12.00;99.90;;;;;;5103938;28;20252;-79
2022/01/01 11:25:20;;;;;;;8.87;8.67;;;12.00;99.90;;;;;;5107144;28;20239;-81
2022/01/01 11:27:49;;;;;;;9.00;8.80;;;12.00;99.90;;;;;;5108998;28;20229;-80
2022/01/01 11:30:18;;;;;;;8.90;8.70;;;12.10;99.90;;;;;;5110995;28;20229;-80
2022/01/01 11:32:52;;;;;;;9.10;8.80;;;12.10;99.90;;;;;;5118787;28;20279;-79
2022/01/01 11:35:30;;;;;;;8.80;8.60;;;12.20;99.90;;;;;;5121402;28;20224;-79
2022/01/01 11:38:02;;;;;;;8.93;8.73;;;12.30;99.90;;;;;;5120938;28;20227;-79
2022/01/01 11:40:41;;;;;;;9.00;8.77;;;12.30;99.90;;;;;;5121391;28;20229;-78
2022/01/01 11:43:32;;;;;;;9.13;8.87;;;12.30;99.90;;;;;;5121337;28;20233;-79
2022/01/01 11:46:00;;;;;;;9.00;8.80;;;12.30;99.90;;;;;;5121833;28;20208;-79
2022/01/01 11:48:47;;;;;;;9.30;9.00;;;12.40;99.90;;;;;;5122310;28;20210;-80
2022/01/01 11:51:32;;;;;;;9.13;8.83;;;12.40;99.90;;;;;;5121702;28;20267;-77
2022/01/01 11:54:22;;;;;;;9.23;8.93;;;12.50;99.90;;;;;;5119985;28;20221;-80
2022/01/01 11:57:09;;;;;;;9.03;8.80;;;12.50;99.90;;;;;;5108482;28;20275;-80
2022/01/01 12:00:00;;;;;;;8.87;8.67;;;12.50;99.90;;;;;;5116264;28;20229;-80
2022/01/01 12:02:48;;;;;;;8.97;8.77;;;12.60;99.90;;;;;;5121118;28;20241;-79
2022/01/01 12:05:33;;;;;;;8.70;8.50;;;12.60;99.90;;;;;;5121654;28;20237;-79
2022/01/01 12:08:02;;;;;;;8.80;8.60;;;12.70;99.90;;;;;;5121681;28;20201;-80
2022/01/01 12:10:37;;;;;;;8.67;8.47;;;12.70;99.90;;;;;;5120566;28;20213;-79
2022/01/01 12:13:07;;;;;;;9.00;8.73;;;12.70;99.90;;;;;;5121000;28;20240;-78
2022/01/01 12:15:48;;;;;;;8.73;8.53;;;12.70;99.90;;;;;;5120975;28;20229;-79
2022/01/01 12:18:19;;;;;;;8.47;8.27;;;12.80;99.90;;;;;;5120857;28;20182;-80
2022/01/01 12:20:56;;;;;;;8.63;8.43;;;12.80;99.90;;;;;;5120904;28;20256;-80
2022/01/01 12:23:27;;;;;;;8.70;8.50;;;12.90;99.90;;;;;;5142106;22;20232;-80
2022/01/01 12:25:56;;;;;;;8.63;8.43;;;12.90;99.90;;;;;;5116396;27;20238;-80
2022/01/01 12:28:25;;;;;;;8.70;8.50;;;13.00;99.90;;;;;;5107907;28;20221;-80
2022/01/01 12:30:59;;;;;;;8.63;8.43;;;13.10;99.90;;;;;;5112009;28;20253;-80
2022/01/01 12:33:47;;;;;;;8.60;8.40;;;13.10;99.90;;;;;;5120322;28;20233;-80
2022/01/01 12:36:24;;;;;;;8.50;8.30;;;13.20;99.90;;;;;;5128495;28;20233;-80
2022/01/01 12:38:54;;;;;;;8.97;8.73;;;13.20;99.90;;;;;;5128706;28;20244;-80
2022/01/01 12:41:23;;;;;;;8.70;8.50;;;13.10;99.90;;;;;;5127869;28;20224;-80
2022/01/01 12:43:54;;;;;;;8.80;8.60;;;13.10;99.90;;;;;;5127048;27;20294;-81
2022/01/01 12:46:30;;;;;;;8.90;8.70;;;13.10;99.90;;;;;;5127822;28;20282;-80
2022/01/01 12:49:00;;;;;;;9.10;8.80;;;13.00;99.90;;;;;;5128328;28;20235;-80
2022/01/01 12:51:38;;;;;;;8.87;8.67;;;13.00;99.90;;;;;;5127605;28;20261;-80
2022/01/01 12:54:10;;;;;;;8.80;8.60;;;13.00;99.90;;;;;;5126984;28;20238;-80
2022/01/01 12:56:39;;;;;;;8.90;8.70;;;12.90;99.90;;;;;;5127937;28;20237;-80
2022/01/01 12:59:14;;;;;;;9.30;9.00;;;13.00;99.90;;;;;;5128077;28;20236;-80
2022/01/01 13:01:44;;;;;;;9.03;8.80;;;13.00;99.90;;;;;;5128286;28;20228;-80
2022/01/01 13:04:14;;;;;;;8.83;8.63;;;13.10;99.90;;;;;;5128478;28;20239;-80
2022/01/01 13:06:52;;;;;;;8.83;8.63;;;13.10;99.90;;;;;;5129476;28;20224;-80
2022/01/01 13:09:21;;;;;;;9.10;8.80;;;13.00;99.90;;;;;;5131033;28;20239;-80
2022/01/01 13:11:56;;;;;;;9.00;8.80;;;12.90;99.90;;;;;;5138583;27;20251;-80